Ontario, CA (91764)

11:09 AM PST on February 10, 2016 (GMT -0800)
Winery Ridge | | Change Station
CLOSE
Current Station
Personal Weather Station
Location: Rancho Cucamonga, CA
Elevation: 1263 ft
Nearby Weather Stations

Elev 1263 ft 34.11 °N, 117.61 °W | Updated 9 seconds ago

Mostly Cloudy
Mostly Cloudy
78.6 °F
Feels Like 77 °F
N
2.0
Wind Variable Wind from SSE
Gusts 2.5 mph

Today
High -- | Low -- °F
--% Chance of Precip.
Yesterday
High -- | Low -- °F
Precip. -- in
Pressure 30.16 in
Visibility 10.0 miles
Clouds Mostly Cloudy 25000 ft
Heat Index 77 °F
Dew Point 20 °F
Humidity 11%
Rainfall 0.00 in
Snow Depth Not available.
6:40 AM 5:29 PM
Waxing Crescent, 6% visible
METAR KONT 101853Z 00000KT 10SM BKN250 25/M03 A3019 RMK AO2 SLP211 T02501028
Pressure 30.16 in
Visibility 10.0 miles
Clouds Mostly Cloudy 25000 ft
Heat Index 77 °F
Dew Point 20 °F
Humidity 11%
Rainfall 0.00 in
Snow Depth Not available.
6:40 AM 5:29 PM
Waxing Crescent, 6% visible
METAR KONT 101853Z 00000KT 10SM BKN250 25/M03 A3019 RMK AO2 SLP211 T02501028

10-Day Weather Forecast

Almanac

Astronomy

Feb. 10, 2016 Rise Set
Actual Time
Civil Twilight
Nautical Twilight
Astronomical Twilight
Moon
Length of Visible Light
Length of Day
Tomorrow will be .
, % of the Moon is Illuminated

Today's Extremes

State Highs State Lows

Community

WunderPhotos

Upload Photos

1,891,921 photos uploaded!

WunderBlog® & News

Nearby

Air Quality

  Air Quality AQ Index Pollutant
Not available.

Snow Depth

Station Depth Elevation

Earthquake Activity

City Distance Mag. Time & Date
Minimum magnitude displayed is 2.5.

Coastal Water Temperatures

Place Temperature

Stations

Nearby Weather Stations

Station Location Temp. Windchill Dew Point Humidity Wind Precip. Elev Updated Type
                   

Watches & Warnings

There are currently no watches in effect.